Time;durP1;ratioP1;P1;durP2;ratioP2;P2;SDS_P1;SDS_P2;PMS_P1;PMS_P2;Temp;Humidity;BMP_temperature;BMP_pressure;BME280_temperature;BME280_humidity;BME280_pressure;Samples;Min_cycle;Max_cycle;Signal;HPM_P1;HPM_P2
2022/05/26 00:00:47;;;;;;;5.12;3.47;;;;;;;11.62;100.00;100077.17;1736546;82;21539;-72
2022/05/26 00:03:15;;;;;;;5.37;3.27;;;;;;;11.57;100.00;100074.98;1755824;82;21031;-71
2022/05/26 00:05:43;;;;;;;6.22;3.17;;;;;;;11.52;100.00;100077.37;1736432;82;21537;-71
2022/05/26 00:08:10;;;;;;;6.90;3.60;;;;;;;11.48;100.00;100077.41;1755425;82;20979;-72
2022/05/26 00:10:38;;;;;;;5.55;3.45;;;;;;;11.44;100.00;100066.56;1736592;82;21071;-71
2022/05/26 00:13:05;;;;;;;5.40;3.30;;;;;;;11.40;100.00;100064.72;1736472;82;21023;-71
2022/05/26 00:15:32;;;;;;;4.50;3.12;;;;;;;11.38;100.00;100060.86;1755252;82;21082;-70
2022/05/26 00:18:00;;;;;;;4.45;3.02;;;;;;;11.37;100.00;100055.62;1755494;82;21075;-72
2022/05/26 00:20:26;;;;;;;7.05;3.45;;;;;;;11.38;100.00;100053.23;1736329;82;21143;-71
2022/05/26 00:22:53;;;;;;;7.30;3.15;;;;;;;11.40;100.00;100047.99;1755377;82;21062;-73
2022/05/26 00:25:21;;;;;;;8.13;3.40;;;;;;;11.44;100.00;100051.67;1736420;82;21012;-70
2022/05/26 00:27:48;;;;;;;8.15;3.33;;;;;;;11.46;100.00;100045.08;1703657;82;21063;-71
2022/05/26 00:30:16;;;;;;;4.60;3.10;;;;;;;11.49;100.00;100046.58;1746208;81;21065;-73
2022/05/26 00:32:43;;;;;;;7.60;3.62;;;;;;;11.49;100.00;100035.26;1726891;83;21045;-71
2022/05/26 00:35:10;;;;;;;4.50;2.92;;;;;;;11.50;100.00;100031.52;1697682;83;21005;-71
2022/05/26 00:37:37;;;;;;;7.37;3.60;;;;;;;11.51;100.00;100029.64;1689447;85;21045;-70
2022/05/26 00:40:06;;;;;;;6.10;3.00;;;;;;;11.50;100.00;100027.45;1698288;83;21617;-71
2022/05/26 00:42:33;;;;;;;6.58;3.10;;;;;;;11.49;100.00;100023.56;1697599;83;21506;-71
2022/05/26 00:45:00;;;;;;;4.53;3.15;;;;;;;11.47;100.00;100022.91;1697640;83;21009;-71
2022/05/26 00:47:29;;;;;;;5.15;3.10;;;;;;;11.44;100.00;100016.48;1681223;84;21034;-69
2022/05/26 00:50:03;;;;;;;5.92;3.15;;;;;;;11.42;100.00;100019.87;1697606;84;21007;-71
2022/05/26 00:52:42;;;;;;;6.85;3.40;;;;;;;11.38;100.00;100021.61;1697464;84;21538;-71
2022/05/26 00:55:15;;;;;;;7.00;3.17;;;;;;;11.36;100.00;100018.73;1677914;84;21085;-70
2022/05/26 00:57:47;;;;;;;8.45;3.45;;;;;;;11.33;100.00;100014.52;1637501;86;21519;-71
2022/05/26 01:00:20;;;;;;;6.78;3.22;;;;;;;11.29;100.00;100015.88;1637738;86;21058;-71
2022/05/26 01:03:24;;;;;;;4.00;3.20;;;;;;;11.23;100.00;100009.83;1637708;86;21010;-71
2022/05/26 01:06:08;;;;;;;5.03;3.22;;;;;;;11.18;100.00;100004.94;1660386;86;21106;-72
2022/05/26 01:08:58;;;;;;;5.92;3.20;;;;;;;11.13;100.00;99999.72;1602253;88;21110;-71
2022/05/26 01:11:27;;;;;;;7.30;3.20;;;;;;;11.09;100.00;100005.16;1642001;87;21133;-71
2022/05/26 01:14:02;;;;;;;3.70;2.98;;;;;;;11.06;100.00;100007.69;1623955;88;21027;-72
2022/05/26 01:16:49;;;;;;;6.12;2.87;;;;;;;11.03;100.00;99999.94;1639564;87;21064;-70
2022/05/26 01:19:54;;;;;;;4.03;2.85;;;;;;;11.01;100.00;99993.35;1568117;91;21108;-71
2022/05/26 01:22:39;;;;;;;5.92;3.30;;;;;;;11.00;100.00;99995.70;1523436;94;21661;-72
2022/05/26 01:25:38;;;;;;;3.98;3.00;;;;;;;10.99;100.00;99992.66;1566218;90;21092;-70
2022/05/26 01:28:28;;;;;;;5.87;3.00;;;;;;;10.99;100.00;99989.95;1542134;93;21204;-71
2022/05/26 01:31:43;;;;;;;5.85;3.20;;;;;;;11.00;100.00;99983.53;1505089;94;21579;-71
2022/05/26 01:34:40;;;;;;;;;;;;;;;11.01;100.00;99976.25;1516001;92;21149;-72
2022/05/26 01:37:30;;;;;;;4.42;3.17;;;;;;;11.02;100.00;99982.02;1548239;93;20124;-70
2022/05/26 01:40:23;;;;;;;8.30;3.47;;;;;;;11.03;100.00;99974.23;1528914;93;21107;-70
2022/05/26 01:43:10;;;;;;;4.78;3.10;;;;;;;11.02;100.00;99969.31;1519923;94;21072;-71
2022/05/26 01:46:10;;;;;;;6.25;3.22;;;;;;;11.00;100.00;99967.82;1520776;94;21148;-72
2022/05/26 01:49:13;;;;;;;5.25;3.20;;;;;;;10.95;100.00;99969.69;1520236;94;21052;-70
2022/05/26 01:51:48;;;;;;;3.37;2.80;;;;;;;10.93;100.00;99972.25;1500831;94;21116;-71
2022/05/26 01:54:40;;;;;;;4.83;3.00;;;;;;;10.86;100.00;99961.27;1503296;95;21085;-71
2022/05/26 01:57:14;;;;;;;7.78;3.02;;;;;;;10.82;100.00;99967.55;1508313;95;21073;-70
2022/05/26 01:59:51;;;;;;;5.58;2.98;;;;;;;10.77;100.00;99960.97;1541386;93;21092;-70
2022/05/26 02:02:27;;;;;;;4.78;2.83;;;;;;;10.73;100.00;99958.27;1516945;95;21104;-71
2022/05/26 02:04:58;;;;;;;4.58;3.17;;;;;;;10.71;100.00;99953.55;1521701;93;21139;-70
2022/05/26 02:07:53;;;;;;;4.40;3.10;;;;;;;10.70;100.00;99950.52;1537816;92;21101;-71
2022/05/26 02:10:30;;;;;;;5.95;3.00;;;;;;;10.69;100.00;99956.94;1614482;89;21056;-72
2022/05/26 02:13:10;;;;;;;4.30;3.15;;;;;;;10.68;100.00;99957.94;1584866;89;21104;-71
2022/05/26 02:15:44;;;;;;;7.37;3.12;;;;;;;10.66;100.00;99959.48;1585171;89;21029;-72
2022/05/26 02:18:20;;;;;;;5.42;3.00;;;;;;;10.65;100.00;99956.44;1614774;89;21052;-73
2022/05/26 02:21:02;;;;;;;5.53;3.40;;;;;;;10.63;100.00;99959.31;1629152;86;21049;-71
2022/05/26 02:23:55;;;;;;;4.87;3.20;;;;;;;10.62;100.00;99959.48;1633636;86;21037;-71
2022/05/26 02:26:21;;;;;;;6.12;3.10;;;;;;;10.60;100.00;99969.11;1588707;90;21112;-70
2022/05/26 02:31:35;;;;;;;6.92;3.00;;;;;;;10.58;100.00;99962.20;1587535;90;21097;-71
2022/05/26 02:34:02;;;;;;;6.83;3.20;;;;;;;10.58;100.00;99964.39;1598425;90;21094;-71
2022/05/26 02:36:31;;;;;;;4.70;3.10;;;;;;;10.60;100.00;99975.04;1598467;90;21566;-71
2022/05/26 02:38:58;;;;;;;4.30;2.90;;;;;;;10.62;100.00;99971.65;1598657;90;21596;-71
2022/05/26 02:41:25;;;;;;;5.60;3.10;;;;;;;10.62;100.00;99979.28;1598428;90;21089;-72
2022/05/26 02:43:54;;;;;;;6.22;3.20;;;;;;;10.64;100.00;99977.72;1598635;90;21089;-71
2022/05/26 02:46:29;;;;;;;4.45;2.92;;;;;;;10.66;100.00;99984.31;1598457;90;21105;-70
2022/05/26 02:49:29;;;;;;;6.20;3.20;;;;;;;10.66;100.00;99978.42;1598540;90;21160;-71
2022/05/26 02:52:05;;;;;;;6.03;3.02;;;;;;;10.67;100.00;99988.20;1539872;93;21119;-70
2022/05/26 02:54:55;;;;;;;6.47;3.20;;;;;;;10.67;100.00;99984.66;1540008;93;21069;-71
2022/05/26 02:57:30;;;;;;;5.62;4.00;;;;;;;10.68;100.00;99986.33;1539675;93;21073;-70
2022/05/26 03:00:05;;;;;;;6.22;3.98;;;;;;;10.69;100.00;99976.70;1525615;94;21116;-70
2022/05/26 03:02:59;;;;;;;8.35;5.05;;;;;;;10.72;100.00;99970.95;1525608;94;21615;-72
2022/05/26 03:05:57;;;;;;;12.55;6.08;;;;;;;10.75;100.00;99969.78;1586512;90;21056;-71
2022/05/26 03:08:25;;;;;;;11.73;5.60;;;;;;;10.76;100.00;99962.81;1586048;90;21044;-71
2022/05/26 03:10:54;;;;;;;7.75;4.67;;;;;;;10.76;100.00;99958.76;1586282;90;21045;-70
2022/05/26 03:13:21;;;;;;;7.50;3.80;;;;;;;10.78;100.00;99964.00;1586226;90;21577;-71
2022/05/26 03:15:47;;;;;;;6.97;3.37;;;;;;;10.80;100.00;99960.12;1586275;90;21088;-71
2022/05/26 03:18:14;;;;;;;6.78;3.72;;;;;;;10.83;100.00;99962.97;1586052;90;21109;-71
2022/05/26 03:20:42;;;;;;;5.53;3.70;;;;;;;10.90;100.00;99965.83;1586210;90;21109;-70
2022/05/26 03:23:09;;;;;;;6.55;3.40;;;;;;;10.95;100.00;99962.92;1586562;90;21093;-72
2022/05/26 03:25:37;;;;;;;4.72;3.77;;;;;;;10.99;100.00;99960.19;1586348;90;21517;-70
2022/05/26 03:28:05;;;;;;;6.00;3.70;;;;;;;11.03;100.00;99959.36;1602588;87;21046;-71
2022/05/26 03:30:32;;;;;;;6.20;3.50;;;;;;;11.07;100.00;99951.21;1637456;86;21128;-71
2022/05/26 03:32:59;;;;;;;7.17;3.80;;;;;;;11.12;100.00;99952.02;1630552;88;21116;-71
2022/05/26 03:40:56;;;;;;;7.75;3.25;;;;;;;11.36;100.00;99957.30;1615448;89;21072;-71
2022/05/26 03:43:28;;;;;;;3.80;2.95;;;;;;;11.43;100.00;99958.79;1611067;89;21059;-72
2022/05/26 03:45:59;;;;;;;9.70;3.62;;;;;;;11.50;100.00;99957.57;1611106;89;21100;-71
2022/05/26 03:48:26;;;;;;;7.08;3.15;;;;;;;11.57;100.00;99952.60;1574192;90;21053;-72
2022/05/26 03:50:53;;;;;;;5.12;3.30;;;;;;;11.64;100.00;99953.25;1594742;89;21097;-70
2022/05/26 03:53:20;;;;;;;5.17;3.40;;;;;;;11.68;100.00;99942.38;1594650;90;21038;-71
2022/05/26 03:55:48;;;;;;;7.50;3.50;;;;;;;11.74;100.00;99940.31;1595045;90;21081;-71
2022/05/26 03:58:17;;;;;;;5.17;3.40;;;;;;;11.81;100.00;99943.12;1574276;90;21034;-70
2022/05/26 04:00:44;;;;;;;6.75;3.87;;;;;;;11.89;100.00;99944.42;1573816;90;21149;-71
2022/05/26 04:03:11;;;;;;;6.47;4.00;;;;;;;11.98;100.00;99942.00;1574261;90;21551;-71
2022/05/26 04:05:38;;;;;;;7.50;5.05;;;;;;;12.07;100.00;99937.34;1573889;90;21118;-70
2022/05/26 04:08:06;;;;;;;7.67;4.40;;;;;;;12.17;100.00;99927.62;1573913;90;21101;-71
2022/05/26 04:10:33;;;;;;;8.78;4.17;;;;;;;12.29;100.00;99927.50;1574322;90;21499;-71
2022/05/26 04:13:00;;;;;;;4.47;3.62;;;;;;;12.43;100.00;99919.89;1574432;90;21105;-71
2022/05/26 04:15:27;;;;;;;8.60;4.67;;;;;;;12.58;100.00;99913.62;1612753;88;21590;-72
2022/05/26 04:17:55;;;;;;;5.33;3.70;;;;;;;12.75;100.00;99915.61;1626118;88;21102;-71
2022/05/26 04:20:22;;;;;;;9.40;4.47;;;;;;;12.91;100.00;99912.19;1626404;88;21503;-70
2022/05/26 04:22:49;;;;;;;6.78;3.70;;;;;;;13.10;100.00;99911.25;1626058;88;21058;-70
2022/05/26 04:25:17;;;;;;;6.80;3.52;;;;;;;13.29;100.00;99911.16;1626161;88;21079;-70
2022/05/26 04:27:44;;;;;;;6.42;3.58;;;;;;;13.48;100.00;99921.95;1604523;86;21086;-70
2022/05/26 04:30:12;;;;;;;5.67;3.40;;;;;;;13.63;100.00;99917.81;1626317;88;21042;-71
2022/05/26 04:32:41;;;;;;;5.92;3.30;;;;;;;13.76;100.00;99919.84;1656683;86;21073;-72
2022/05/26 04:35:09;;;;;;;5.45;3.02;;;;;;;13.89;100.00;99917.75;1658776;86;21105;-72
2022/05/26 04:37:36;;;;;;;3.98;3.20;;;;;;;14.01;100.00;99919.73;1659090;86;21061;-72
2022/05/26 04:40:05;;;;;;;5.80;3.30;;;;;;;14.14;100.00;99918.16;1658721;86;21037;-71
2022/05/26 04:42:33;;;;;;;4.47;3.33;;;;;;;14.33;100.00;99924.80;1658739;86;21065;-72
2022/05/26 04:45:00;;;;;;;4.90;3.30;;;;;;;14.46;100.00;99925.39;1682685;83;21067;-72
2022/05/26 04:47:27;;;;;;;5.40;3.45;;;;;;;14.60;100.00;99927.19;1717906;83;21031;-72
2022/05/26 04:49:55;;;;;;;6.35;3.40;;;;;;;14.74;100.00;99928.11;1691524;83;21055;-71
2022/05/26 04:52:23;;;;;;;6.50;3.30;;;;;;;14.89;100.00;99926.60;1691531;83;21099;-71
2022/05/26 04:54:50;;;;;;;7.65;3.60;;;;;;;15.03;100.00;99932.95;1717674;83;21051;-73
2022/05/26 04:57:20;;;;;;;5.15;3.05;;;;;;;15.19;100.00;99931.23;1717960;83;21019;-72
2022/05/26 04:59:48;;;;;;;9.90;3.45;;;;;;;15.19;100.00;99931.23;1669034;86;21057;-74
2022/05/26 05:02:16;;;;;;;8.15;3.90;;;;;;;15.45;100.00;99932.37;1668520;86;21068;-75
2022/05/26 05:04:44;;;;;;;9.88;6.08;;;;;;;15.67;100.00;99937.98;1668122;86;21085;-71
2022/05/26 05:07:15;;;;;;;6.72;3.70;;;;;;;15.76;100.00;99945.48;1668942;86;21165;-71
2022/05/26 05:09:43;;;;;;;23.10;14.85;;;;;;;15.78;100.00;99952.09;1669228;86;21549;-74
2022/05/26 05:12:14;;;;;;;12.93;6.22;;;;;;;15.86;100.00;99951.88;1669179;86;21562;-70
2022/05/26 05:14:47;;;;;;;23.45;12.13;;;;;;;15.93;100.00;99949.99;1641822;86;21097;-71
2022/05/26 05:17:14;;;;;;;14.95;7.85;;;;;;;16.08;100.00;99939.73;1642038;87;21077;-71
2022/05/26 05:19:41;;;;;;;6.25;3.70;;;;;;;16.31;100.00;99933.02;1618847;87;21069;-71
2022/05/26 05:22:28;;;;;;;4.80;3.42;;;;;;;16.55;100.00;99947.03;1641045;87;21256;-73
2022/05/26 05:25:18;;;;;;;8.83;3.52;;;;;;;16.70;100.00;99948.48;1606859;87;21104;-70
2022/05/26 05:27:50;;;;;;;5.42;3.60;;;;;;;16.87;100.00;99946.67;1593505;90;21115;-71
2022/05/26 05:30:28;;;;;;;7.63;3.70;;;;;;;17.06;100.00;99951.77;1562158;92;21130;-73
2022/05/26 05:33:06;;;;;;;9.68;4.42;;;;;;;17.19;100.00;99954.97;1539929;92;21852;-73
2022/05/26 05:35:41;;;;;;;8.68;5.62;;;;;;;17.32;100.00;99952.19;1507495;95;21125;-72
2022/05/26 05:38:07;;;;;;;12.55;4.35;;;;;;;17.54;100.00;99951.86;1507036;94;21163;-72
2022/05/26 05:40:35;;;;;;;8.68;3.72;;;;;;;17.69;100.00;99957.88;1522590;94;21583;-72
2022/05/26 05:43:02;;;;;;;7.53;4.25;;;;;;;17.78;100.00;99952.45;1522908;94;21077;-73
2022/05/26 05:45:29;;;;;;;6.33;3.70;;;;;;;17.85;100.00;99960.62;1495088;94;21128;-72
2022/05/26 05:47:56;;;;;;;8.90;3.62;;;;;;;18.00;100.00;99953.48;1496736;95;21105;-70
2022/05/26 05:50:23;;;;;;;22.87;4.33;;;;;;;18.12;100.00;99961.28;1508980;94;21079;-72
2022/05/26 05:52:50;;;;;;;6.45;3.20;;;;;;;18.23;100.00;99978.05;1491678;96;21069;-72
2022/05/26 05:55:17;;;;;;;25.62;5.10;;;;;;;18.34;100.00;99974.06;1496138;94;21542;-71
2022/05/26 05:57:45;;;;;;;10.43;4.65;;;;;;;18.42;100.00;99974.30;1490101;95;21109;-72
2022/05/26 06:00:13;;;;;;;28.12;5.17;;;;;;;18.59;100.00;99975.92;1474773;96;21051;-73
2022/05/26 06:02:41;;;;;;;12.43;5.72;;;;;;;18.74;100.00;99971.47;1479940;95;21604;-73
2022/05/26 06:05:10;;;;;;;16.02;5.72;;;;;;;18.88;100.00;99985.91;1492245;95;21164;-73
2022/05/26 06:07:40;;;;;;;18.37;5.55;;;;;;;18.92;100.00;99969.31;1499141;95;21554;-72
2022/05/26 06:10:12;;;;;;;13.75;4.00;;;;;;;18.96;100.00;99974.11;1495613;95;21082;-72
2022/05/26 06:12:39;;;;;;;10.53;3.15;;;;;;;18.95;100.00;99968.31;1541516;93;21109;-75
2022/05/26 06:15:08;;;;;;;8.98;3.67;;;;;;;18.91;100.00;99979.44;1540216;93;21077;-72
2022/05/26 06:17:35;;;;;;;7.42;3.08;;;;;;;19.00;100.00;99988.20;1542576;93;21586;-70
2022/05/26 06:20:06;;;;;;;10.10;3.47;;;;;;;19.19;100.00;99973.94;1541148;93;21093;-71
2022/05/26 06:22:37;;;;;;;30.15;5.17;;;;;;;19.33;100.00;99975.44;1540847;93;21069;-72
2022/05/26 06:25:03;;;;;;;5.78;2.65;;;;;;;19.33;100.00;99975.98;1573864;90;21041;-70
2022/05/26 06:30:52;;;;;;;6.40;2.92;;;;;;;19.41;100.00;99973.48;1586777;90;21068;-79
2022/05/26 06:38:57;;;;;;;13.50;5.15;;;;;;;19.82;100.00;99971.88;1641478;87;21077;-71
2022/05/26 06:44:11;;;;;;;8.55;3.65;;;;;;;20.07;95.85;99957.98;1643069;87;21002;-74
2022/05/26 06:46:38;;;;;;;6.85;3.10;;;;;;;20.10;96.35;99954.78;1640596;87;21069;-72
2022/05/26 06:49:06;;;;;;;7.78;3.20;;;;;;;20.18;97.49;99957.70;1641541;87;21089;-73
2022/05/26 06:51:36;;;;;;;11.63;3.42;;;;;;;20.25;98.81;99961.17;1640482;87;21064;-74
2022/05/26 06:54:04;;;;;;;17.73;9.85;;;;;;;20.47;96.91;99953.20;1647739;87;21101;-74
2022/05/26 06:56:32;;;;;;;16.40;7.40;;;;;;;20.56;98.01;99950.39;1628487;87;21053;-77
2022/05/26 06:58:59;;;;;;;7.05;3.25;;;;;;;20.73;97.37;99955.19;1645438;87;21550;-69
2022/05/26 07:01:26;;;;;;;9.08;3.10;;;;;;;20.78;97.04;99949.27;1648267;87;21048;-71
2022/05/26 07:03:53;;;;;;;16.12;3.85;;;;;;;20.89;95.83;99957.19;1648559;87;21076;-72
2022/05/26 07:06:23;;;;;;;13.20;3.33;;;;;;;20.98;94.10;99952.16;1628064;86;21112;-72
2022/05/26 07:08:50;;;;;;;7.92;3.83;;;;;;;20.98;89.14;99953.53;1668028;86;21057;-74
2022/05/26 07:11:18;;;;;;;7.08;2.98;;;;;;;20.97;89.36;99947.21;1667040;86;21049;-71
2022/05/26 07:13:45;;;;;;;10.30;3.00;;;;;;;20.99;86.73;99944.23;1676957;83;21102;-73
2022/05/26 07:16:12;;;;;;;10.78;3.10;;;;;;;21.04;85.08;99940.22;1723589;82;21024;-74
2022/05/26 07:18:40;;;;;;;6.33;2.67;;;;;;;21.03;85.55;99946.26;1729437;82;21045;-73
2022/05/26 07:21:09;;;;;;;11.35;3.47;;;;;;;21.22;86.19;99939.20;1734472;82;21001;-73
2022/05/26 07:23:36;;;;;;;4.28;2.62;;;;;;;21.38;88.38;99939.80;1728731;83;21092;-72
2022/05/26 07:26:06;;;;;;;6.50;2.47;;;;;;;21.54;86.96;99927.20;1716912;83;21017;-74
2022/05/26 07:28:34;;;;;;;5.87;2.50;;;;;;;21.67;85.23;99927.44;1683231;85;21047;-72
2022/05/26 07:31:01;;;;;;;11.33;2.80;;;;;;;21.87;83.85;99940.75;1660853;85;20996;-71
2022/05/26 07:33:28;;;;;;;15.13;3.75;;;;;;;22.08;78.77;99932.83;1659964;85;21046;-71
2022/05/26 07:35:55;;;;;;;9.45;2.80;;;;;;;22.29;68.69;99932.66;1683085;85;21085;-74
2022/05/26 07:41:17;;;;;;;4.50;2.20;;;;;;;22.10;58.95;99935.64;1683314;85;21030;-70
2022/05/26 07:43:52;;;;;;;17.50;3.83;;;;;;;21.87;58.59;99946.25;1660405;85;21106;-72
2022/05/26 07:46:21;;;;;;;7.80;2.52;;;;;;;21.54;57.38;99942.34;1659392;85;21069;-72
2022/05/26 07:48:49;;;;;;;6.22;2.27;;;;;;;21.21;61.61;99947.14;1660175;85;21238;-72
2022/05/26 07:51:19;;;;;;;8.08;2.40;;;;;;;20.92;66.95;99951.22;1683135;85;21133;-75
2022/05/26 07:53:46;;;;;;;9.35;3.37;;;;;;;20.88;70.84;99956.09;1682373;85;21054;-73
2022/05/26 07:56:13;;;;;;;7.83;3.95;;;;;;;20.81;73.90;99948.79;1683257;85;21057;-72
2022/05/26 07:58:40;;;;;;;5.83;2.60;;;;;;;20.75;74.07;99940.16;1683089;85;21583;-73
2022/05/26 08:01:08;;;;;;;4.72;2.52;;;;;;;20.69;74.99;99946.59;1682355;85;21059;-74
2022/05/26 08:03:37;;;;;;;6.12;2.60;;;;;;;20.66;75.84;99944.31;1682352;85;21210;-76
2022/05/26 08:06:04;;;;;;;7.47;2.70;;;;;;;20.69;78.07;99934.77;1658640;85;21046;-74
2022/05/26 08:08:34;;;;;;;10.23;3.30;;;;;;;20.65;83.41;99939.91;1659837;85;21062;-76
2022/05/26 08:11:01;;;;;;;10.08;2.75;;;;;;;20.69;84.81;99941.09;1659546;85;21091;-75
2022/05/26 08:13:29;;;;;;;7.47;2.40;;;;;;;20.66;86.21;99940.20;1660068;85;21071;-78
2022/05/26 08:15:56;;;;;;;10.03;2.80;;;;;;;20.58;88.21;99942.75;1682277;85;21050;-74
2022/05/26 08:18:24;;;;;;;4.78;2.70;;;;;;;20.42;90.03;99937.98;1684201;85;21575;-75
2022/05/26 08:20:50;;;;;;;20.80;3.17;;;;;;;20.24;89.30;99943.88;1661769;85;21520;-75
2022/05/26 08:23:23;;;;;;;7.30;2.60;;;;;;;20.05;82.55;99952.73;1660969;85;21086;-77
2022/05/26 08:25:50;;;;;;;7.95;2.77;;;;;;;19.91;79.80;99956.75;1720705;82;21031;-74
2022/05/26 08:28:18;;;;;;;17.45;3.40;;;;;;;19.86;79.14;99960.19;1718267;83;21050;-75
2022/05/26 08:30:45;;;;;;;15.10;3.05;;;;;;;19.80;79.39;99966.62;1733947;83;21000;-72
2022/05/26 08:33:12;;;;;;;31.27;4.60;;;;;;;19.78;75.24;99967.40;1736963;82;21132;-74
2022/05/26 08:35:40;;;;;;;12.70;3.02;;;;;;;19.71;73.00;99969.38;1715249;82;21086;-75
2022/05/26 08:38:06;;;;;;;9.50;2.70;;;;;;;19.65;72.17;99973.86;1722128;81;21043;-75
2022/05/26 08:40:49;;;;;;;9.15;2.70;;;;;;;19.61;72.99;99986.37;1693403;82;21011;-75
2022/05/26 08:43:20;;;;;;;11.12;2.70;;;;;;;19.58;74.67;99977.23;1740134;81;21133;-74
2022/05/26 08:45:49;;;;;;;6.20;2.65;;;;;;;19.58;74.84;99978.60;1740733;82;21049;-73
2022/05/26 08:48:31;;;;;;;14.87;2.70;;;;;;;19.58;75.67;99979.97;1715504;82;21038;-74
2022/05/26 08:50:58;;;;;;;9.78;2.52;;;;;;;19.57;70.11;99987.09;1562994;89;21134;-75
2022/05/26 08:53:35;;;;;;;19.02;3.75;;;;;;;19.50;67.23;99986.63;1628416;88;21101;-75
2022/05/26 08:56:03;;;;;;;11.10;2.60;;;;;;;19.47;66.47;99981.59;1609993;89;21173;-74
2022/05/26 08:58:35;;;;;;;12.80;2.47;;;;;;;19.47;67.51;99981.59;1587799;89;21712;-74
2022/05/26 09:01:03;;;;;;;15.53;2.75;;;;;;;19.51;69.28;99981.45;1623339;87;21110;-76
2022/05/26 09:06:06;;;;;;;9.93;2.67;;;;;;;19.69;74.02;99966.03;1546455;93;21077;-73
2022/05/26 09:14:01;;;;;;;12.28;2.98;;;;;;;19.65;82.77;99967.55;1460613;96;21559;-73
2022/05/26 09:16:30;;;;;;;17.30;3.10;;;;;;;19.67;82.66;99961.29;1486843;96;21085;-73
2022/05/26 09:19:20;;;;;;;8.55;2.40;;;;;;;19.69;83.41;99953.14;1464139;97;21682;-73
2022/05/26 09:21:49;;;;;;;9.38;3.40;;;;;;;19.72;83.60;99952.69;1483121;96;21189;-73
2022/05/26 09:27:02;;;;;;;;;;;;;;;19.67;85.97;99950.31;1429139;100;21104;-73
2022/05/26 09:29:33;;;;;;;12.55;3.00;;;;;;;19.64;87.41;99936.55;1425677;100;20490;-71
2022/05/26 09:32:02;;;;;;;13.38;3.47;;;;;;;19.59;88.41;99928.18;1320826;108;21643;-71
2022/05/26 09:34:34;;;;;;;4.72;2.52;;;;;;;19.53;87.30;99930.50;1320151;108;21182;-70
2022/05/26 09:37:07;;;;;;;8.75;2.80;;;;;;;19.52;84.90;99930.18;1318029;109;21187;-71
2022/05/26 09:39:42;;;;;;;13.30;3.30;;;;;;;19.50;83.85;99933.16;1317654;108;21216;-73
2022/05/26 09:42:21;;;;;;;11.05;2.90;;;;;;;19.50;83.69;99928.22;1317851;109;21170;-71
2022/05/26 09:45:04;;;;;;;4.40;2.50;;;;;;;19.50;81.55;99926.30;1317917;109;21690;-73
2022/05/26 09:47:38;;;;;;;8.08;2.40;;;;;;;19.52;79.40;99908.25;1268473;113;21804;-71
2022/05/26 09:50:09;;;;;;;6.08;3.67;;;;;;;19.51;78.65;99919.76;1268956;113;21583;-73
2022/05/26 09:52:49;;;;;;;16.70;4.80;;;;;;;19.54;78.64;99907.47;1260278;113;21249;-72
2022/05/26 09:55:25;;;;;;;14.38;2.72;;;;;;;19.54;78.17;99906.10;1246984;115;21238;-72
2022/05/26 09:58:13;;;;;;;12.73;2.65;;;;;;;19.54;78.56;99893.76;1279209;110;21751;-70
2022/05/26 10:00:47;;;;;;;11.95;2.80;;;;;;;19.54;78.85;99896.50;1299440;110;21243;-72
2022/05/26 10:03:48;;;;;;;5.97;2.67;;;;;;;19.54;78.60;99908.30;1306409;109;21748;-71
2022/05/26 10:06:48;;;;;;;9.73;3.12;;;;;;;19.54;76.98;99908.84;1301120;109;21141;-72
2022/05/26 10:09:24;;;;;;;14.00;3.10;;;;;;;19.50;79.72;99903.53;1341228;107;21170;-70
2022/05/26 10:12:22;;;;;;;7.97;3.08;;;;;;;19.40;78.55;99918.33;1340335;107;21212;-70
2022/05/26 10:15:45;;;;;;;13.43;3.20;;;;;;;19.27;78.47;99927.03;1340675;106;21686;-76
2022/05/26 10:18:30;;;;;;;8.93;2.80;;;;;;;19.12;80.27;99908.78;1348002;104;21306;-72
2022/05/26 10:21:25;;;;;;;3.75;2.47;;;;;;;19.00;83.67;99903.25;1348545;105;21157;-71
2022/05/26 10:24:49;;;;;;;7.83;2.75;;;;;;;18.92;86.79;99903.55;1345655;105;21131;-70
2022/05/26 10:27:40;;;;;;;9.83;2.95;;;;;;;18.83;90.97;99896.17;1406352;101;21605;-72
2022/05/26 10:30:19;;;;;;;5.50;2.83;;;;;;;18.71;96.75;99903.45;1503763;93;21659;-71
2022/05/26 10:33:32;;;;;;;14.13;3.45;;;;;;;18.58;100.00;99908.00;1519803;92;21104;-69
2022/05/26 10:36:22;;;;;;;5.72;3.02;;;;;;;18.45;100.00;99898.58;1542255;92;21120;-72
2022/05/26 10:39:11;;;;;;;9.23;3.08;;;;;;;18.15;100.00;99874.65;1520046;93;21154;-72
2022/05/26 10:41:48;;;;;;;6.58;3.05;;;;;;;18.01;100.00;99864.89;1521118;91;21132;-73
2022/05/26 10:44:34;;;;;;;8.45;3.12;;;;;;;18.02;100.00;99859.20;1594752;88;21068;-71
2022/05/26 10:47:09;;;;;;;6.53;3.25;;;;;;;18.07;100.00;99851.67;1521873;93;21063;-72
2022/05/26 10:49:52;;;;;;;12.98;5.35;;;;;;;18.04;100.00;99850.74;1584107;90;21042;-73
2022/05/26 10:52:32;;;;;;;11.03;4.70;;;;;;;17.88;100.00;99845.84;1561999;92;21074;-71
2022/05/26 10:55:15;;;;;;;7.75;3.70;;;;;;;17.63;100.00;99826.14;1563036;91;21058;-74
2022/05/26 10:58:16;;;;;;;10.78;4.20;;;;;;;17.34;100.00;99838.03;1579023;90;21537;-71
2022/05/26 11:00:46;;;;;;;8.75;4.28;;;;;;;17.12;100.00;99833.42;1547366;92;21059;-72
2022/05/26 11:03:31;;;;;;;8.55;3.80;;;;;;;16.76;100.00;99823.09;1530226;92;21575;-70
2022/05/26 11:06:14;;;;;;;5.62;2.70;;;;;;;16.35;100.00;99813.38;1394900;102;21177;-72
2022/05/26 11:08:46;;;;;;;13.15;7.53;;;;;;;15.92;100.00;99805.19;1363853;104;21237;-70
2022/05/26 11:11:42;;;;;;;13.28;5.55;;;;;;;15.47;100.00;99809.86;1374145;104;21120;-72
2022/05/26 11:17:21;;;;;;;8.63;3.35;;;;;;;15.17;100.00;99803.96;1378844;103;21111;-74
2022/05/26 11:19:44;;;;;;;4.83;3.08;;;;;;;14.54;100.00;99794.66;1372400;104;21219;-72
2022/05/26 11:22:13;;;;;;;6.42;3.00;;;;;;;14.42;100.00;99780.78;1372821;105;21160;-71
2022/05/26 11:24:51;;;;;;;10.93;6.33;;;;;;;14.34;100.00;99776.37;1372698;105;21164;-71
2022/05/26 11:27:28;;;;;;;12.78;8.95;;;;;;;14.27;100.00;99779.58;1371382;103;21213;-70
2022/05/26 11:30:03;;;;;;;4.00;3.55;;;;;;;14.19;100.00;99766.14;1356628;105;21177;-71
2022/05/26 11:38:35;;;;;;;3.60;3.12;;;;;;;14.02;100.00;99749.30;1340172;106;21117;-71
2022/05/26 11:41:05;;;;;;;7.85;4.17;;;;;;;13.93;100.00;99756.78;1323071;108;21161;-72
2022/05/26 11:43:58;;;;;;;6.95;3.62;;;;;;;13.80;100.00;99734.45;1400546;99;21138;-70
2022/05/26 11:46:50;;;;;;;6.83;3.50;;;;;;;13.72;100.00;99726.97;1390875;101;21744;-70
2022/05/26 11:49:51;;;;;;;6.70;3.92;;;;;;;13.65;100.00;99715.55;1424070;99;21682;-70
2022/05/26 11:52:38;;;;;;;4.53;3.22;;;;;;;13.64;100.00;99700.28;1398477;101;21203;-70
2022/05/26 11:55:13;;;;;;;7.12;3.30;;;;;;;13.64;100.00;99700.28;1398274;101;21131;-71
2022/05/26 11:57:46;;;;;;;5.53;3.60;;;;;;;13.66;100.00;99681.89;1418136;101;21165;-70
2022/05/26 12:00:23;;;;;;;9.25;5.42;;;;;;;13.65;100.00;99671.22;1386500;103;21181;-70
2022/05/26 12:02:54;;;;;;;3.80;3.22;;;;;;;13.65;100.00;99671.22;1413726;99;21178;-72
2022/05/26 12:05:35;;;;;;;5.95;3.60;;;;;;;13.64;100.00;99660.88;1483282;95;21148;-69
2022/05/26 12:08:05;;;;;;;3.98;3.20;;;;;;;13.64;100.00;99650.02;1445087;98;21669;-70
2022/05/26 12:10:40;;;;;;;5.15;3.40;;;;;;;13.64;100.00;99643.75;1497640;96;21183;-70
2022/05/26 12:13:27;;;;;;;5.00;3.02;;;;;;;13.66;100.00;99637.06;1477831;94;21096;-71
2022/05/26 12:16:13;;;;;;;4.42;3.10;;;;;;;13.68;100.00;99642.30;1535507;92;21666;-70
2022/05/26 12:19:01;;;;;;;6.35;3.85;;;;;;;13.73;100.00;99641.71;1554744;92;21050;-70
2022/05/26 12:21:39;;;;;;;4.12;2.95;;;;;;;13.75;100.00;99636.91;1540883;93;21138;-70
2022/05/26 12:24:37;;;;;;;3.52;2.70;;;;;;;13.77;100.00;99628.03;1502886;95;21689;-72
2022/05/26 12:27:04;;;;;;;5.03;2.80;;;;;;;13.75;100.00;99634.19;1521762;93;21114;-71
2022/05/26 12:29:49;;;;;;;3.45;2.60;;;;;;;13.72;100.00;99645.45;1544314;91;21085;-70
2022/05/26 12:32:19;;;;;;;;;;;;;;;13.65;100.00;99646.27;1559819;91;21085;-64
2022/05/26 12:35:18;;;;;;;2.50;2.30;;;;;;;13.50;100.00;99639.29;1576485;89;20189;-65
2022/05/26 12:38:27;;;;;;;6.37;2.60;;;;;;;13.33;100.00;99632.80;1556323;91;21102;-72
2022/05/26 12:41:24;;;;;;;3.20;2.60;;;;;;;13.19;100.00;99599.78;1580908;88;21105;-71